sensor_id;sensor_type;location;lat;lon;timestamp;P1;durP1;ratioP1;P2;durP2;ratioP2
3379;SDS011;1703;51.964;7.642;2023-02-14T00:01:37;22.43;;;13.27;;
3379;SDS011;1703;51.964;7.642;2023-02-14T00:04:04;20.33;;;13.33;;
3379;SDS011;1703;51.964;7.642;2023-02-14T00:06:31;20.43;;;14.60;;
3379;SDS011;1703;51.964;7.642;2023-02-14T00:08:59;21.80;;;15.00;;
3379;SDS011;1703;51.964;7.642;2023-02-14T00:11:27;19.57;;;14.57;;
3379;SDS011;1703;51.964;7.642;2023-02-14T00:13:56;22.50;;;14.03;;
3379;SDS011;1703;51.964;7.642;2023-02-14T00:16:41;21.43;;;13.30;;
3379;SDS011;1703;51.964;7.642;2023-02-14T00:19:10;20.67;;;14.17;;
3379;SDS011;1703;51.964;7.642;2023-02-14T00:21:38;21.90;;;15.37;;
3379;SDS011;1703;51.964;7.642;2023-02-14T00:24:06;20.97;;;13.87;;
3379;SDS011;1703;51.964;7.642;2023-02-14T00:26:34;22.23;;;14.60;;
3379;SDS011;1703;51.964;7.642;2023-02-14T00:29:04;21.57;;;13.67;;
3379;SDS011;1703;51.964;7.642;2023-02-14T00:31:31;21.03;;;13.97;;
3379;SDS011;1703;51.964;7.642;2023-02-14T00:33:58;20.43;;;14.40;;
3379;SDS011;1703;51.964;7.642;2023-02-14T00:36:26;22.23;;;15.00;;
3379;SDS011;1703;51.964;7.642;2023-02-14T00:38:53;20.50;;;14.50;;
3379;SDS011;1703;51.964;7.642;2023-02-14T00:41:20;17.87;;;13.10;;
3379;SDS011;1703;51.964;7.642;2023-02-14T00:43:49;22.07;;;14.13;;
3379;SDS011;1703;51.964;7.642;2023-02-14T00:46:19;23.37;;;15.03;;
3379;SDS011;1703;51.964;7.642;2023-02-14T00:48:47;22.37;;;15.30;;
3379;SDS011;1703;51.964;7.642;2023-02-14T00:51:15;19.53;;;14.20;;
3379;SDS011;1703;51.964;7.642;2023-02-14T00:53:42;21.87;;;13.90;;
3379;SDS011;1703;51.964;7.642;2023-02-14T00:56:09;21.17;;;13.73;;
3379;SDS011;1703;51.964;7.642;2023-02-14T00:58:36;23.53;;;16.27;;
3379;SDS011;1703;51.964;7.642;2023-02-14T01:01:03;17.93;;;14.40;;
3379;SDS011;1703;51.964;7.642;2023-02-14T01:03:31;26.73;;;15.70;;
3379;SDS011;1703;51.964;7.642;2023-02-14T01:05:59;19.73;;;13.90;;
3379;SDS011;1703;51.964;7.642;2023-02-14T01:08:26;21.83;;;15.33;;
3379;SDS011;1703;51.964;7.642;2023-02-14T01:10:53;27.20;;;15.67;;
3379;SDS011;1703;51.964;7.642;2023-02-14T01:13:19;22.73;;;16.20;;
3379;SDS011;1703;51.964;7.642;2023-02-14T01:15:47;25.53;;;15.33;;
3379;SDS011;1703;51.964;7.642;2023-02-14T01:18:15;21.80;;;14.30;;
3379;SDS011;1703;51.964;7.642;2023-02-14T01:20:44;24.57;;;13.73;;
3379;SDS011;1703;51.964;7.642;2023-02-14T01:23:11;21.47;;;14.03;;
3379;SDS011;1703;51.964;7.642;2023-02-14T01:25:38;23.60;;;15.00;;
3379;SDS011;1703;51.964;7.642;2023-02-14T01:28:05;18.40;;;14.50;;
3379;SDS011;1703;51.964;7.642;2023-02-14T01:30:32;20.40;;;14.97;;
3379;SDS011;1703;51.964;7.642;2023-02-14T01:32:59;21.63;;;15.40;;
3379;SDS011;1703;51.964;7.642;2023-02-14T01:35:26;20.73;;;14.60;;
3379;SDS011;1703;51.964;7.642;2023-02-14T01:37:54;30.27;;;15.13;;
3379;SDS011;1703;51.964;7.642;2023-02-14T01:40:21;22.97;;;15.93;;
3379;SDS011;1703;51.964;7.642;2023-02-14T01:42:48;21.60;;;14.00;;
3379;SDS011;1703;51.964;7.642;2023-02-14T01:45:15;24.77;;;15.03;;
3379;SDS011;1703;51.964;7.642;2023-02-14T01:47:45;21.53;;;13.63;;
3379;SDS011;1703;51.964;7.642;2023-02-14T01:50:17;22.20;;;14.37;;
3379;SDS011;1703;51.964;7.642;2023-02-14T01:52:48;23.40;;;16.47;;
3379;SDS011;1703;51.964;7.642;2023-02-14T01:55:20;22.27;;;15.27;;
3379;SDS011;1703;51.964;7.642;2023-02-14T01:57:50;19.40;;;13.70;;
3379;SDS011;1703;51.964;7.642;2023-02-14T02:00:22;22.27;;;14.97;;
3379;SDS011;1703;51.964;7.642;2023-02-14T02:03:07;25.80;;;15.00;;
3379;SDS011;1703;51.964;7.642;2023-02-14T02:05:35;21.07;;;14.47;;
3379;SDS011;1703;51.964;7.642;2023-02-14T02:08:04;21.53;;;14.67;;
3379;SDS011;1703;51.964;7.642;2023-02-14T02:10:32;23.80;;;15.17;;
3379;SDS011;1703;51.964;7.642;2023-02-14T02:13:00;20.63;;;14.83;;
3379;SDS011;1703;51.964;7.642;2023-02-14T02:15:30;22.43;;;15.40;;
3379;SDS011;1703;51.964;7.642;2023-02-14T02:18:07;23.80;;;14.50;;
3379;SDS011;1703;51.964;7.642;2023-02-14T02:23:59;17.83;;;13.93;;
3379;SDS011;1703;51.964;7.642;2023-02-14T02:26:49;19.13;;;13.87;;
3379;SDS011;1703;51.964;7.642;2023-02-14T02:29:36;17.30;;;12.83;;
3379;SDS011;1703;51.964;7.642;2023-02-14T02:32:38;20.30;;;13.93;;
3379;SDS011;1703;51.964;7.642;2023-02-14T02:35:39;20.17;;;14.30;;
3379;SDS011;1703;51.964;7.642;2023-02-14T02:38:19;17.20;;;12.10;;
3379;SDS011;1703;51.964;7.642;2023-02-14T02:41:01;21.97;;;13.50;;
3379;SDS011;1703;51.964;7.642;2023-02-14T02:43:37;21.97;;;15.13;;
3379;SDS011;1703;51.964;7.642;2023-02-14T02:46:15;25.17;;;16.07;;
3379;SDS011;1703;51.964;7.642;2023-02-14T02:49:07;25.20;;;13.57;;
3379;SDS011;1703;51.964;7.642;2023-02-14T02:52:00;16.80;;;13.00;;
3379;SDS011;1703;51.964;7.642;2023-02-14T02:54:59;15.73;;;11.67;;
3379;SDS011;1703;51.964;7.642;2023-02-14T02:57:33;22.83;;;14.53;;
3379;SDS011;1703;51.964;7.642;2023-02-14T03:00:04;17.03;;;12.03;;
3379;SDS011;1703;51.964;7.642;2023-02-14T03:02:35;15.80;;;12.07;;
3379;SDS011;1703;51.964;7.642;2023-02-14T03:05:20;16.37;;;12.30;;
3379;SDS011;1703;51.964;7.642;2023-02-14T03:07:51;18.53;;;12.77;;
3379;SDS011;1703;51.964;7.642;2023-02-14T03:10:18;15.40;;;12.20;;
3379;SDS011;1703;51.964;7.642;2023-02-14T03:12:52;15.47;;;11.97;;
3379;SDS011;1703;51.964;7.642;2023-02-14T03:15:56;15.73;;;10.97;;
3379;SDS011;1703;51.964;7.642;2023-02-14T03:18:42;17.77;;;11.30;;
3379;SDS011;1703;51.964;7.642;2023-02-14T03:21:39;19.83;;;13.87;;
3379;SDS011;1703;51.964;7.642;2023-02-14T03:24:15;15.60;;;11.90;;
3379;SDS011;1703;51.964;7.642;2023-02-14T03:26:48;15.97;;;12.10;;
3379;SDS011;1703;51.964;7.642;2023-02-14T03:29:19;19.37;;;12.40;;
3379;SDS011;1703;51.964;7.642;2023-02-14T03:31:57;14.80;;;11.60;;
3379;SDS011;1703;51.964;7.642;2023-02-14T03:34:29;18.40;;;11.27;;
3379;SDS011;1703;51.964;7.642;2023-02-14T03:37:08;12.80;;;9.90;;
3379;SDS011;1703;51.964;7.642;2023-02-14T03:39:42;17.27;;;10.60;;
3379;SDS011;1703;51.964;7.642;2023-02-14T03:42:13;12.60;;;9.90;;
3379;SDS011;1703;51.964;7.642;2023-02-14T03:44:44;16.13;;;11.07;;
3379;SDS011;1703;51.964;7.642;2023-02-14T03:47:15;14.30;;;10.90;;
3379;SDS011;1703;51.964;7.642;2023-02-14T03:49:45;12.53;;;10.20;;
3379;SDS011;1703;51.964;7.642;2023-02-14T03:52:15;16.83;;;10.93;;
3379;SDS011;1703;51.964;7.642;2023-02-14T03:54:46;12.87;;;9.80;;
3379;SDS011;1703;51.964;7.642;2023-02-14T03:57:17;16.13;;;12.10;;
3379;SDS011;1703;51.964;7.642;2023-02-14T03:59:48;16.73;;;12.50;;
3379;SDS011;1703;51.964;7.642;2023-02-14T04:02:16;20.07;;;12.17;;
3379;SDS011;1703;51.964;7.642;2023-02-14T04:04:48;16.27;;;10.57;;
3379;SDS011;1703;51.964;7.642;2023-02-14T04:07:18;16.43;;;12.70;;
3379;SDS011;1703;51.964;7.642;2023-02-14T04:09:48;17.83;;;12.97;;
3379;SDS011;1703;51.964;7.642;2023-02-14T04:12:16;13.40;;;11.47;;
3379;SDS011;1703;51.964;7.642;2023-02-14T04:14:43;14.73;;;10.97;;
3379;SDS011;1703;51.964;7.642;2023-02-14T04:17:10;16.67;;;11.80;;
3379;SDS011;1703;51.964;7.642;2023-02-14T04:19:55;16.63;;;11.97;;
3379;SDS011;1703;51.964;7.642;2023-02-14T04:22:21;17.27;;;11.93;;
3379;SDS011;1703;51.964;7.642;2023-02-14T04:24:50;17.70;;;12.20;;
3379;SDS011;1703;51.964;7.642;2023-02-14T04:27:16;17.53;;;11.87;;
3379;SDS011;1703;51.964;7.642;2023-02-14T04:29:44;20.60;;;12.57;;
3379;SDS011;1703;51.964;7.642;2023-02-14T04:32:12;18.23;;;13.87;;
3379;SDS011;1703;51.964;7.642;2023-02-14T04:34:40;18.13;;;12.13;;
3379;SDS011;1703;51.964;7.642;2023-02-14T04:37:07;17.47;;;11.87;;
3379;SDS011;1703;51.964;7.642;2023-02-14T04:39:34;22.33;;;13.37;;
3379;SDS011;1703;51.964;7.642;2023-02-14T04:42:03;14.63;;;12.10;;
3379;SDS011;1703;51.964;7.642;2023-02-14T04:44:30;17.40;;;12.27;;
3379;SDS011;1703;51.964;7.642;2023-02-14T04:46:58;17.60;;;12.40;;
3379;SDS011;1703;51.964;7.642;2023-02-14T04:49:24;14.53;;;11.93;;
3379;SDS011;1703;51.964;7.642;2023-02-14T04:51:51;20.03;;;13.17;;
3379;SDS011;1703;51.964;7.642;2023-02-14T04:54:18;15.10;;;11.47;;
3379;SDS011;1703;51.964;7.642;2023-02-14T04:56:45;26.10;;;12.53;;
3379;SDS011;1703;51.964;7.642;2023-02-14T04:59:13;21.13;;;12.03;;
3379;SDS011;1703;51.964;7.642;2023-02-14T05:01:40;14.67;;;11.90;;
3379;SDS011;1703;51.964;7.642;2023-02-14T05:04:07;20.47;;;11.37;;
3379;SDS011;1703;51.964;7.642;2023-02-14T05:06:34;16.93;;;11.17;;
3379;SDS011;1703;51.964;7.642;2023-02-14T05:09:01;17.20;;;12.53;;
3379;SDS011;1703;51.964;7.642;2023-02-14T05:11:28;15.90;;;11.50;;
3379;SDS011;1703;51.964;7.642;2023-02-14T05:13:55;15.47;;;10.43;;
3379;SDS011;1703;51.964;7.642;2023-02-14T05:16:24;16.70;;;11.83;;
3379;SDS011;1703;51.964;7.642;2023-02-14T05:18:50;16.50;;;11.43;;
3379;SDS011;1703;51.964;7.642;2023-02-14T05:21:17;14.17;;;10.57;;
3379;SDS011;1703;51.964;7.642;2023-02-14T05:23:44;16.10;;;11.40;;
3379;SDS011;1703;51.964;7.642;2023-02-14T05:26:11;16.00;;;11.63;;
3379;SDS011;1703;51.964;7.642;2023-02-14T05:28:38;15.70;;;11.03;;
3379;SDS011;1703;51.964;7.642;2023-02-14T05:31:05;12.77;;;10.60;;
3379;SDS011;1703;51.964;7.642;2023-02-14T05:33:34;16.90;;;11.53;;
3379;SDS011;1703;51.964;7.642;2023-02-14T05:36:01;16.17;;;10.90;;
3379;SDS011;1703;51.964;7.642;2023-02-14T05:38:28;14.47;;;11.20;;
3379;SDS011;1703;51.964;7.642;2023-02-14T05:40:55;13.33;;;10.30;;
3379;SDS011;1703;51.964;7.642;2023-02-14T05:43:21;13.97;;;10.70;;
3379;SDS011;1703;51.964;7.642;2023-02-14T05:45:48;17.83;;;11.80;;
3379;SDS011;1703;51.964;7.642;2023-02-14T05:48:15;13.80;;;10.93;;
3379;SDS011;1703;51.964;7.642;2023-02-14T05:50:43;14.97;;;10.83;;
3379;SDS011;1703;51.964;7.642;2023-02-14T05:53:10;13.60;;;10.30;;
3379;SDS011;1703;51.964;7.642;2023-02-14T05:55:37;15.47;;;11.40;;
3379;SDS011;1703;51.964;7.642;2023-02-14T05:58:04;19.30;;;12.63;;
3379;SDS011;1703;51.964;7.642;2023-02-14T06:00:31;20.80;;;11.67;;
3379;SDS011;1703;51.964;7.642;2023-02-14T06:02:58;14.90;;;11.10;;
3379;SDS011;1703;51.964;7.642;2023-02-14T06:05:25;13.40;;;9.20;;
3379;SDS011;1703;51.964;7.642;2023-02-14T06:07:53;17.60;;;11.90;;
3379;SDS011;1703;51.964;7.642;2023-02-14T06:10:21;17.33;;;12.20;;
3379;SDS011;1703;51.964;7.642;2023-02-14T06:12:49;16.57;;;11.20;;
3379;SDS011;1703;51.964;7.642;2023-02-14T06:15:17;11.70;;;9.60;;
3379;SDS011;1703;51.964;7.642;2023-02-14T06:17:59;15.80;;;10.97;;
3379;SDS011;1703;51.964;7.642;2023-02-14T06:20:38;15.90;;;10.30;;
3379;SDS011;1703;51.964;7.642;2023-02-14T06:23:06;15.90;;;11.00;;
3379;SDS011;1703;51.964;7.642;2023-02-14T06:25:36;13.93;;;10.40;;
3379;SDS011;1703;51.964;7.642;2023-02-14T06:31:32;13.07;;;9.97;;
3379;SDS011;1703;51.964;7.642;2023-02-14T06:34:00;12.60;;;9.50;;
3379;SDS011;1703;51.964;7.642;2023-02-14T06:36:30;16.07;;;10.83;;
3379;SDS011;1703;51.964;7.642;2023-02-14T06:39:02;20.30;;;10.30;;
3379;SDS011;1703;51.964;7.642;2023-02-14T06:41:45;15.67;;;10.97;;
3379;SDS011;1703;51.964;7.642;2023-02-14T06:44:12;19.40;;;10.10;;
3379;SDS011;1703;51.964;7.642;2023-02-14T06:46:42;20.40;;;11.80;;
3379;SDS011;1703;51.964;7.642;2023-02-14T06:49:12;14.07;;;10.07;;
3379;SDS011;1703;51.964;7.642;2023-02-14T06:51:39;13.70;;;10.73;;
3379;SDS011;1703;51.964;7.642;2023-02-14T06:54:08;20.27;;;10.53;;
3379;SDS011;1703;51.964;7.642;2023-02-14T06:56:35;14.73;;;11.73;;
3379;SDS011;1703;51.964;7.642;2023-02-14T06:59:07;17.03;;;10.80;;
3379;SDS011;1703;51.964;7.642;2023-02-14T07:01:37;28.63;;;12.47;;
3379;SDS011;1703;51.964;7.642;2023-02-14T07:04:04;18.90;;;11.07;;
3379;SDS011;1703;51.964;7.642;2023-02-14T07:06:34;17.17;;;10.83;;
3379;SDS011;1703;51.964;7.642;2023-02-14T07:09:01;16.80;;;12.23;;
3379;SDS011;1703;51.964;7.642;2023-02-14T07:11:32;14.47;;;10.70;;
3379;SDS011;1703;51.964;7.642;2023-02-14T07:14:08;17.47;;;11.47;;
3379;SDS011;1703;51.964;7.642;2023-02-14T07:16:35;17.13;;;12.50;;
3379;SDS011;1703;51.964;7.642;2023-02-14T07:19:04;26.70;;;12.43;;
3379;SDS011;1703;51.964;7.642;2023-02-14T07:21:35;25.50;;;12.57;;
3379;SDS011;1703;51.964;7.642;2023-02-14T07:24:02;15.70;;;10.43;;
3379;SDS011;1703;51.964;7.642;2023-02-14T07:26:30;17.97;;;12.33;;
3379;SDS011;1703;51.964;7.642;2023-02-14T07:28:57;16.00;;;12.50;;
3379;SDS011;1703;51.964;7.642;2023-02-14T07:31:23;22.80;;;13.43;;
3379;SDS011;1703;51.964;7.642;2023-02-14T07:33:50;19.37;;;11.60;;
3379;SDS011;1703;51.964;7.642;2023-02-14T07:36:17;18.33;;;11.60;;
3379;SDS011;1703;51.964;7.642;2023-02-14T07:38:44;16.47;;;12.07;;
3379;SDS011;1703;51.964;7.642;2023-02-14T07:41:11;14.53;;;11.13;;
3379;SDS011;1703;51.964;7.642;2023-02-14T07:43:39;17.53;;;11.40;;
3379;SDS011;1703;51.964;7.642;2023-02-14T07:46:06;19.50;;;12.37;;
3379;SDS011;1703;51.964;7.642;2023-02-14T07:48:32;17.43;;;13.13;;
3379;SDS011;1703;51.964;7.642;2023-02-14T07:50:59;16.97;;;11.27;;
3379;SDS011;1703;51.964;7.642;2023-02-14T07:53:27;15.50;;;12.33;;
3379;SDS011;1703;51.964;7.642;2023-02-14T07:55:53;19.17;;;11.97;;
3379;SDS011;1703;51.964;7.642;2023-02-14T07:58:20;14.13;;;10.90;;
3379;SDS011;1703;51.964;7.642;2023-02-14T08:00:48;32.43;;;11.53;;
3379;SDS011;1703;51.964;7.642;2023-02-14T08:03:16;17.90;;;12.50;;
3379;SDS011;1703;51.964;7.642;2023-02-14T08:05:44;15.07;;;11.17;;
3379;SDS011;1703;51.964;7.642;2023-02-14T08:08:21;15.07;;;10.90;;
3379;SDS011;1703;51.964;7.642;2023-02-14T08:10:52;14.87;;;11.03;;
3379;SDS011;1703;51.964;7.642;2023-02-14T08:13:19;19.73;;;12.37;;
3379;SDS011;1703;51.964;7.642;2023-02-14T08:15:45;18.57;;;11.60;;
3379;SDS011;1703;51.964;7.642;2023-02-14T08:18:33;17.07;;;12.17;;
3379;SDS011;1703;51.964;7.642;2023-02-14T08:21:01;16.47;;;11.73;;
3379;SDS011;1703;51.964;7.642;2023-02-14T08:23:28;16.33;;;12.00;;
3379;SDS011;1703;51.964;7.642;2023-02-14T08:25:55;22.20;;;12.80;;
3379;SDS011;1703;51.964;7.642;2023-02-14T08:28:23;14.63;;;11.17;;
3379;SDS011;1703;51.964;7.642;2023-02-14T08:30:50;15.63;;;12.63;;
3379;SDS011;1703;51.964;7.642;2023-02-14T08:33:18;20.70;;;13.37;;
3379;SDS011;1703;51.964;7.642;2023-02-14T08:35:47;15.30;;;11.30;;
3379;SDS011;1703;51.964;7.642;2023-02-14T08:38:14;17.37;;;12.20;;
3379;SDS011;1703;51.964;7.642;2023-02-14T08:40:41;22.50;;;13.20;;
3379;SDS011;1703;51.964;7.642;2023-02-14T08:43:08;17.87;;;13.07;;
3379;SDS011;1703;51.964;7.642;2023-02-14T08:45:35;24.37;;;13.33;;
3379;SDS011;1703;51.964;7.642;2023-02-14T08:48:02;14.90;;;10.93;;
3379;SDS011;1703;51.964;7.642;2023-02-14T08:50:32;18.37;;;11.17;;
3379;SDS011;1703;51.964;7.642;2023-02-14T08:53:00;14.80;;;12.67;;
3379;SDS011;1703;51.964;7.642;2023-02-14T08:55:32;14.10;;;12.17;;
3379;SDS011;1703;51.964;7.642;2023-02-14T08:58:00;16.37;;;11.47;;
3379;SDS011;1703;51.964;7.642;2023-02-14T09:00:27;21.53;;;13.43;;
3379;SDS011;1703;51.964;7.642;2023-02-14T09:02:54;16.90;;;11.77;;
3379;SDS011;1703;51.964;7.642;2023-02-14T09:05:21;14.70;;;11.60;;
3379;SDS011;1703;51.964;7.642;2023-02-14T09:07:48;17.37;;;12.33;;
3379;SDS011;1703;51.964;7.642;2023-02-14T09:10:16;14.73;;;11.50;;
3379;SDS011;1703;51.964;7.642;2023-02-14T09:12:43;15.27;;;10.17;;
3379;SDS011;1703;51.964;7.642;2023-02-14T09:15:10;14.90;;;10.90;;
3379;SDS011;1703;51.964;7.642;2023-02-14T09:17:38;15.23;;;10.50;;
3379;SDS011;1703;51.964;7.642;2023-02-14T09:20:05;13.13;;;10.10;;
3379;SDS011;1703;51.964;7.642;2023-02-14T09:22:33;15.80;;;9.57;;
3379;SDS011;1703;51.964;7.642;2023-02-14T09:25:00;12.80;;;10.53;;
3379;SDS011;1703;51.964;7.642;2023-02-14T09:27:29;16.73;;;8.20;;
3379;SDS011;1703;51.964;7.642;2023-02-14T09:29:56;10.80;;;9.20;;
3379;SDS011;1703;51.964;7.642;2023-02-14T09:32:23;15.20;;;8.83;;
3379;SDS011;1703;51.964;7.642;2023-02-14T09:34:50;13.07;;;8.50;;
3379;SDS011;1703;51.964;7.642;2023-02-14T09:37:17;16.50;;;9.27;;
3379;SDS011;1703;51.964;7.642;2023-02-14T09:40:01;13.07;;;8.83;;
3379;SDS011;1703;51.964;7.642;2023-02-14T09:42:38;13.30;;;9.20;;
3379;SDS011;1703;51.964;7.642;2023-02-14T09:45:10;15.90;;;9.40;;
3379;SDS011;1703;51.964;7.642;2023-02-14T09:47:40;16.27;;;9.67;;
3379;SDS011;1703;51.964;7.642;2023-02-14T09:50:12;13.27;;;8.43;;
3379;SDS011;1703;51.964;7.642;2023-02-14T09:52:45;10.67;;;8.60;;
3379;SDS011;1703;51.964;7.642;2023-02-14T09:55:15;11.87;;;9.33;;
3379;SDS011;1703;51.964;7.642;2023-02-14T09:57:48;15.00;;;9.40;;
3379;SDS011;1703;51.964;7.642;2023-02-14T10:00:28;10.43;;;8.30;;
3379;SDS011;1703;51.964;7.642;2023-02-14T10:03:02;10.73;;;9.13;;
3379;SDS011;1703;51.964;7.642;2023-02-14T10:05:43;11.90;;;8.97;;
3379;SDS011;1703;51.964;7.642;2023-02-14T10:08:23;12.20;;;8.80;;
3379;SDS011;1703;51.964;7.642;2023-02-14T10:11:02;10.53;;;9.10;;
3379;SDS011;1703;51.964;7.642;2023-02-14T10:13:37;13.43;;;9.67;;
3379;SDS011;1703;51.964;7.642;2023-02-14T10:16:08;11.77;;;9.60;;
3379;SDS011;1703;51.964;7.642;2023-02-14T10:18:42;10.93;;;8.83;;
3379;SDS011;1703;51.964;7.642;2023-02-14T10:21:12;11.60;;;9.10;;
3379;SDS011;1703;51.964;7.642;2023-02-14T10:23:47;18.80;;;9.03;;
3379;SDS011;1703;51.964;7.642;2023-02-14T10:26:18;17.73;;;10.07;;
3379;SDS011;1703;51.964;7.642;2023-02-14T10:28:54;17.33;;;10.60;;
3379;SDS011;1703;51.964;7.642;2023-02-14T10:31:22;14.43;;;10.00;;
3379;SDS011;1703;51.964;7.642;2023-02-14T10:33:52;13.87;;;9.57;;
3379;SDS011;1703;51.964;7.642;2023-02-14T10:36:25;27.27;;;9.40;;
3379;SDS011;1703;51.964;7.642;2023-02-14T10:39:05;13.53;;;9.93;;
3379;SDS011;1703;51.964;7.642;2023-02-14T10:41:43;15.87;;;9.30;;
3379;SDS011;1703;51.964;7.642;2023-02-14T10:44:21;14.27;;;10.73;;
3379;SDS011;1703;51.964;7.642;2023-02-14T10:46:58;13.10;;;9.37;;
3379;SDS011;1703;51.964;7.642;2023-02-14T10:49:33;13.10;;;9.00;;
3379;SDS011;1703;51.964;7.642;2023-02-14T10:52:11;16.03;;;9.50;;
3379;SDS011;1703;51.964;7.642;2023-02-14T10:54:50;11.00;;;8.87;;
3379;SDS011;1703;51.964;7.642;2023-02-14T10:57:21;10.43;;;7.90;;
3379;SDS011;1703;51.964;7.642;2023-02-14T10:59:54;13.87;;;9.77;;
3379;SDS011;1703;51.964;7.642;2023-02-14T11:02:25;13.87;;;9.27;;
3379;SDS011;1703;51.964;7.642;2023-02-14T11:04:56;11.33;;;9.27;;
3379;SDS011;1703;51.964;7.642;2023-02-14T11:07:24;11.50;;;8.83;;
3379;SDS011;1703;51.964;7.642;2023-02-14T11:09:51;14.17;;;8.03;;
3379;SDS011;1703;51.964;7.642;2023-02-14T11:12:31;10.13;;;8.50;;
3379;SDS011;1703;51.964;7.642;2023-02-14T11:15:16;9.30;;;7.70;;
3379;SDS011;1703;51.964;7.642;2023-02-14T11:17:47;17.87;;;8.23;;
3379;SDS011;1703;51.964;7.642;2023-02-14T11:20:22;8.93;;;7.03;;
3379;SDS011;1703;51.964;7.642;2023-02-14T11:22:54;11.00;;;6.60;;
3379;SDS011;1703;51.964;7.642;2023-02-14T11:25:22;9.57;;;6.73;;
3379;SDS011;1703;51.964;7.642;2023-02-14T11:27:52;14.73;;;7.57;;
3379;SDS011;1703;51.964;7.642;2023-02-14T11:30:29;7.10;;;6.40;;
3379;SDS011;1703;51.964;7.642;2023-02-14T11:32:59;7.70;;;6.43;;
3379;SDS011;1703;51.964;7.642;2023-02-14T11:35:27;10.47;;;6.83;;
3379;SDS011;1703;51.964;7.642;2023-02-14T11:37:58;12.20;;;7.87;;
3379;SDS011;1703;51.964;7.642;2023-02-14T11:40:28;10.83;;;6.70;;
3379;SDS011;1703;51.964;7.642;2023-02-14T11:42:57;7.07;;;5.83;;
3379;SDS011;1703;51.964;7.642;2023-02-14T11:45:31;10.60;;;6.87;;
3379;SDS011;1703;51.964;7.642;2023-02-14T11:50:59;9.57;;;6.40;;
3379;SDS011;1703;51.964;7.642;2023-02-14T11:53:32;9.13;;;6.50;;
3379;SDS011;1703;51.964;7.642;2023-02-14T12:16:21;7.20;;;6.20;;
3379;SDS011;1703;51.964;7.642;2023-02-14T12:18:53;10.60;;;7.23;;
3379;SDS011;1703;51.964;7.642;2023-02-14T12:21:27;11.77;;;7.80;;
3379;SDS011;1703;51.964;7.642;2023-02-14T12:24:04;13.97;;;6.97;;
3379;SDS011;1703;51.964;7.642;2023-02-14T12:26:43;11.73;;;7.70;;
3379;SDS011;1703;51.964;7.642;2023-02-14T12:29:16;12.33;;;6.70;;
3379;SDS011;1703;51.964;7.642;2023-02-14T12:31:50;8.37;;;7.23;;
3379;SDS011;1703;51.964;7.642;2023-02-14T12:34:18;8.10;;;6.87;;
3379;SDS011;1703;51.964;7.642;2023-02-14T12:36:49;13.57;;;8.03;;
3379;SDS011;1703;51.964;7.642;2023-02-14T12:39:29;7.17;;;6.20;;
3379;SDS011;1703;51.964;7.642;2023-02-14T12:42:06;11.30;;;7.50;;
3379;SDS011;1703;51.964;7.642;2023-02-14T12:44:45;14.73;;;6.93;;
3379;SDS011;1703;51.964;7.642;2023-02-14T12:47:20;8.77;;;7.73;;
3379;SDS011;1703;51.964;7.642;2023-02-14T12:55:59;8.00;;;7.20;;
3379;SDS011;1703;51.964;7.642;2023-02-14T12:58:36;8.57;;;6.63;;
3379;SDS011;1703;51.964;7.642;2023-02-14T13:01:18;16.40;;;8.43;;
3379;SDS011;1703;51.964;7.642;2023-02-14T13:04:14;9.47;;;7.83;;
3379;SDS011;1703;51.964;7.642;2023-02-14T13:07:08;10.63;;;6.87;;
3379;SDS011;1703;51.964;7.642;2023-02-14T13:09:44;11.13;;;8.10;;
3379;SDS011;1703;51.964;7.642;2023-02-14T13:12:19;8.87;;;7.47;;
3379;SDS011;1703;51.964;7.642;2023-02-14T13:15:00;13.13;;;6.77;;
3379;SDS011;1703;51.964;7.642;2023-02-14T13:17:39;9.13;;;7.40;;
3379;SDS011;1703;51.964;7.642;2023-02-14T13:20:15;7.97;;;7.10;;
3379;SDS011;1703;51.964;7.642;2023-02-14T13:23:10;8.50;;;6.50;;
3379;SDS011;1703;51.964;7.642;2023-02-14T13:25:39;8.33;;;6.60;;
3379;SDS011;1703;51.964;7.642;2023-02-14T13:28:14;8.67;;;6.90;;
3379;SDS011;1703;51.964;7.642;2023-02-14T13:30:43;9.50;;;6.90;;
3379;SDS011;1703;51.964;7.642;2023-02-14T13:33:20;14.80;;;8.33;;
3379;SDS011;1703;51.964;7.642;2023-02-14T13:35:51;9.30;;;6.97;;
3379;SDS011;1703;51.964;7.642;2023-02-14T13:38:21;11.27;;;7.07;;
3379;SDS011;1703;51.964;7.642;2023-02-14T13:40:49;10.67;;;7.67;;
3379;SDS011;1703;51.964;7.642;2023-02-14T13:46:11;8.83;;;7.30;;
3379;SDS011;1703;51.964;7.642;2023-02-14T13:48:39;13.40;;;7.70;;
3379;SDS011;1703;51.964;7.642;2023-02-14T13:51:06;9.30;;;7.37;;
3379;SDS011;1703;51.964;7.642;2023-02-14T13:53:36;10.80;;;6.80;;
3379;SDS011;1703;51.964;7.642;2023-02-14T13:56:05;9.53;;;6.70;;
3379;SDS011;1703;51.964;7.642;2023-02-14T13:59:00;9.47;;;7.30;;
3379;SDS011;1703;51.964;7.642;2023-02-14T14:01:33;13.03;;;7.20;;
3379;SDS011;1703;51.964;7.642;2023-02-14T14:04:05;12.53;;;7.30;;
3379;SDS011;1703;51.964;7.642;2023-02-14T14:12:41;9.93;;;6.93;;
3379;SDS011;1703;51.964;7.642;2023-02-14T14:15:16;11.47;;;7.03;;
3379;SDS011;1703;51.964;7.642;2023-02-14T14:17:48;12.10;;;8.97;;
3379;SDS011;1703;51.964;7.642;2023-02-14T14:20:53;8.23;;;6.30;;
3379;SDS011;1703;51.964;7.642;2023-02-14T14:23:30;9.40;;;7.90;;
3379;SDS011;1703;51.964;7.642;2023-02-14T14:26:01;13.33;;;8.40;;
3379;SDS011;1703;51.964;7.642;2023-02-14T14:28:53;7.87;;;6.97;;
3379;SDS011;1703;51.964;7.642;2023-02-14T14:31:20;10.30;;;6.90;;
3379;SDS011;1703;51.964;7.642;2023-02-14T14:33:52;9.70;;;6.80;;
3379;SDS011;1703;51.964;7.642;2023-02-14T14:36:23;10.43;;;6.93;;
3379;SDS011;1703;51.964;7.642;2023-02-14T14:38:51;8.83;;;7.77;;
3379;SDS011;1703;51.964;7.642;2023-02-14T14:41:18;7.37;;;6.40;;
3379;SDS011;1703;51.964;7.642;2023-02-14T14:43:45;8.20;;;6.30;;
3379;SDS011;1703;51.964;7.642;2023-02-14T14:46:14;8.40;;;6.37;;
3379;SDS011;1703;51.964;7.642;2023-02-14T14:48:42;7.33;;;6.63;;
3379;SDS011;1703;51.964;7.642;2023-02-14T14:51:15;9.53;;;6.43;;
3379;SDS011;1703;51.964;7.642;2023-02-14T14:53:47;9.70;;;8.37;;
3379;SDS011;1703;51.964;7.642;2023-02-14T14:56:19;12.13;;;8.70;;
3379;SDS011;1703;51.964;7.642;2023-02-14T14:58:48;7.27;;;6.20;;
3379;SDS011;1703;51.964;7.642;2023-02-14T15:01:28;9.97;;;6.00;;
3379;SDS011;1703;51.964;7.642;2023-02-14T15:04:07;10.43;;;6.93;;
3379;SDS011;1703;51.964;7.642;2023-02-14T15:06:35;8.90;;;7.47;;
3379;SDS011;1703;51.964;7.642;2023-02-14T15:09:13;7.80;;;7.00;;
3379;SDS011;1703;51.964;7.642;2023-02-14T15:11:42;8.80;;;6.83;;
3379;SDS011;1703;51.964;7.642;2023-02-14T15:14:28;9.90;;;7.17;;
3379;SDS011;1703;51.964;7.642;2023-02-14T15:17:00;10.37;;;9.20;;
3379;SDS011;1703;51.964;7.642;2023-02-14T15:19:30;8.23;;;7.43;;
3379;SDS011;1703;51.964;7.642;2023-02-14T15:22:01;9.23;;;7.70;;
3379;SDS011;1703;51.964;7.642;2023-02-14T15:24:29;7.33;;;6.43;;
3379;SDS011;1703;51.964;7.642;2023-02-14T15:26:59;8.77;;;7.27;;
3379;SDS011;1703;51.964;7.642;2023-02-14T15:29:28;14.60;;;8.03;;
3379;SDS011;1703;51.964;7.642;2023-02-14T15:31:56;9.73;;;7.23;;
3379;SDS011;1703;51.964;7.642;2023-02-14T15:34:27;8.17;;;7.37;;
3379;SDS011;1703;51.964;7.642;2023-02-14T15:36:57;9.13;;;7.50;;
3379;SDS011;1703;51.964;7.642;2023-02-14T15:39:28;13.73;;;8.97;;
3379;SDS011;1703;51.964;7.642;2023-02-14T15:41:59;9.73;;;6.87;;
3379;SDS011;1703;51.964;7.642;2023-02-14T15:44:26;9.53;;;7.07;;
3379;SDS011;1703;51.964;7.642;2023-02-14T15:46:54;16.50;;;7.67;;
3379;SDS011;1703;51.964;7.642;2023-02-14T15:49:23;54.07;;;31.90;;
3379;SDS011;1703;51.964;7.642;2023-02-14T15:51:56;15.87;;;9.40;;
3379;SDS011;1703;51.964;7.642;2023-02-14T15:54:29;12.70;;;9.77;;
3379;SDS011;1703;51.964;7.642;2023-02-14T15:57:00;10.77;;;7.00;;
3379;SDS011;1703;51.964;7.642;2023-02-14T15:59:29;7.67;;;6.87;;
3379;SDS011;1703;51.964;7.642;2023-02-14T16:02:01;13.03;;;7.17;;
3379;SDS011;1703;51.964;7.642;2023-02-14T16:04:39;9.30;;;6.70;;
3379;SDS011;1703;51.964;7.642;2023-02-14T16:07:09;11.80;;;7.67;;